createdAt,value
2017-12-31T00:00:05.454Z,1002.42
2017-12-31T00:01:27.324Z,1002.43
2017-12-31T00:02:48.933Z,1002.43
2017-12-31T00:04:10.694Z,1002.44
2017-12-31T00:05:32.053Z,1002.47
2017-12-31T00:06:53.658Z,1002.49
2017-12-31T00:08:15.547Z,1002.53
2017-12-31T00:09:37.473Z,1002.54
2017-12-31T00:10:59.604Z,1002.52
2017-12-31T00:12:21.780Z,1002.56
2017-12-31T00:13:43.679Z,1002.6
2017-12-31T00:15:05.801Z,1002.58
2017-12-31T00:16:27.930Z,1002.64
2017-12-31T00:17:50.085Z,1002.73
2017-12-31T00:19:12.067Z,1002.66
2017-12-31T00:20:34.304Z,1002.66
2017-12-31T00:21:56.724Z,1002.68
2017-12-31T00:23:18.597Z,1002.65
2017-12-31T00:24:40.656Z,1002.71
2017-12-31T00:26:02.526Z,1002.68
2017-12-31T00:27:24.439Z,1002.7
2017-12-31T00:28:46.286Z,1002.72
2017-12-31T00:30:08.589Z,1002.73
2017-12-31T00:31:30.748Z,1002.78
2017-12-31T00:32:52.885Z,1002.8
2017-12-31T00:34:14.894Z,1002.79
2017-12-31T00:35:36.603Z,1002.76
2017-12-31T00:36:58.740Z,1002.81
2017-12-31T00:38:20.638Z,1002.83
2017-12-31T00:39:41.975Z,1002.78
2017-12-31T00:41:03.562Z,1002.79
2017-12-31T00:42:25.527Z,1002.72
2017-12-31T00:43:46.878Z,1002.76
2017-12-31T00:45:08.757Z,1002.71
2017-12-31T00:46:30.874Z,1002.74
2017-12-31T00:47:52.722Z,1002.8
2017-12-31T00:49:14.593Z,1002.83
2017-12-31T00:50:36.242Z,1002.83
2017-12-31T00:51:58.095Z,1002.82
2017-12-31T00:53:20.004Z,1002.84
2017-12-31T00:54:41.347Z,1002.83
2017-12-31T00:56:02.966Z,1002.84
2017-12-31T00:57:25.105Z,1002.82
2017-12-31T00:58:47.052Z,1002.79
2017-12-31T01:00:08.684Z,1002.79
2017-12-31T01:01:31.030Z,1002.81
2017-12-31T01:02:52.676Z,1002.81
2017-12-31T01:04:14.391Z,1002.78
2017-12-31T01:05:35.980Z,1002.77
2017-12-31T01:06:58.094Z,1002.8
2017-12-31T01:08:19.984Z,1002.77
2017-12-31T01:09:41.855Z,1002.79
2017-12-31T01:11:03.463Z,1002.83
2017-12-31T01:12:25.595Z,1002.85
2017-12-31T01:13:46.943Z,1002.88
2017-12-31T01:15:08.823Z,1002.84
2017-12-31T01:16:31.013Z,1002.86
2017-12-31T01:17:52.885Z,1002.85
2017-12-31T01:19:14.771Z,1002.83
2017-12-31T01:20:35.843Z,1002.81
2017-12-31T01:21:57.446Z,1002.77
2017-12-31T01:23:19.636Z,1002.78
2017-12-31T01:24:41.486Z,1002.73
2017-12-31T01:26:03.338Z,1002.78
2017-12-31T01:27:25.265Z,1002.81
2017-12-31T01:28:46.868Z,1002.83
2017-12-31T01:30:09.012Z,1002.86
2017-12-31T01:31:30.102Z,1002.86
2017-12-31T01:32:52.221Z,1002.88
2017-12-31T01:34:14.076Z,1002.85
2017-12-31T01:35:35.685Z,1002.87
2017-12-31T01:36:57.126Z,1002.9
2017-12-31T01:38:19.386Z,1002.91
2017-12-31T01:39:41.257Z,1002.87
2017-12-31T01:41:03.186Z,1002.89
2017-12-31T01:42:25.100Z,1002.89
2017-12-31T01:43:47.221Z,1002.92
2017-12-31T01:45:09.500Z,1002.89
2017-12-31T01:46:31.124Z,1002.85
2017-12-31T01:47:52.725Z,1002.85
2017-12-31T01:49:14.105Z,1002.84
2017-12-31T01:50:36.219Z,1002.91
2017-12-31T01:51:57.543Z,1002.96
2017-12-31T01:53:19.167Z,1002.94
2017-12-31T01:54:41.023Z,1002.95
2017-12-31T01:56:02.428Z,1002.94
2017-12-31T01:57:24.339Z,1002.92
2017-12-31T01:58:46.209Z,1002.91
2017-12-31T02:00:08.045Z,1002.87
2017-12-31T02:01:29.888Z,1002.98
2017-12-31T02:02:51.725Z,1003.02
2017-12-31T02:04:13.607Z,1003.05
2017-12-31T02:05:35.207Z,1002.98
2017-12-31T02:06:56.816Z,1003.01
2017-12-31T02:08:18.405Z,1003.04
2017-12-31T02:09:40.271Z,1003.07
2017-12-31T02:11:02.384Z,1003.11
2017-12-31T02:12:24.367Z,1003.08
2017-12-31T02:13:46.235Z,1003.07
2017-12-31T02:15:08.126Z,1003.04
2017-12-31T02:16:30.058Z,1002.98
2017-12-31T02:17:51.803Z,1002.97
2017-12-31T02:19:13.745Z,1003.02
2017-12-31T02:20:35.976Z,1003.04
2017-12-31T02:21:57.866Z,1003.03
2017-12-31T02:23:19.071Z,1003
2017-12-31T02:24:40.665Z,1002.99
2017-12-31T02:26:02.934Z,1002.96
2017-12-31T02:27:24.807Z,1002.99
2017-12-31T02:28:45.910Z,1003.03
2017-12-31T02:30:07.606Z,1003.07
2017-12-31T02:31:29.876Z,1003.05
2017-12-31T02:32:51.539Z,1003.03
2017-12-31T02:34:13.145Z,1003.07
2017-12-31T02:35:34.786Z,1003.03
2017-12-31T02:36:56.113Z,1003.09
2017-12-31T02:38:17.972Z,1003.07
2017-12-31T02:39:39.610Z,1003.09
2017-12-31T02:41:01.469Z,1003.05
2017-12-31T02:42:22.962Z,1003.06
2017-12-31T02:43:44.834Z,1003.06
2017-12-31T02:45:06.227Z,1003.1
2017-12-31T02:46:28.365Z,1003.12
2017-12-31T02:47:50.599Z,1003.09
2017-12-31T02:49:12.192Z,1003.11
2017-12-31T02:50:33.276Z,1003.07
2017-12-31T02:51:54.893Z,1003.05
2017-12-31T02:53:16.746Z,1002.95
2017-12-31T02:54:38.371Z,1002.94
2017-12-31T02:56:00.515Z,1002.93
2017-12-31T02:57:22.374Z,1002.93
2017-12-31T02:58:44.263Z,1002.98
2017-12-31T03:00:05.918Z,1002.98
2017-12-31T03:01:28.058Z,1003.06
2017-12-31T03:02:49.765Z,1003.09
2017-12-31T03:04:12.054Z,1003.09
2017-12-31T03:05:33.136Z,1003.07
2017-12-31T03:06:54.777Z,1003.06
2017-12-31T03:08:16.663Z,1003.05
2017-12-31T03:09:38.519Z,1003.01
2017-12-31T03:11:00.397Z,1002.97
2017-12-31T03:12:22.256Z,1003.01
2017-12-31T03:13:44.127Z,1002.97
2017-12-31T03:15:06.281Z,1002.93
2017-12-31T03:16:28.400Z,1002.93
2017-12-31T03:17:50.110Z,1002.92
2017-12-31T03:19:11.816Z,1002.89
2017-12-31T03:20:33.688Z,1002.98
2017-12-31T03:21:55.604Z,1003
2017-12-31T03:23:17.495Z,1003.05
2017-12-31T03:24:39.334Z,1003.09
2017-12-31T03:26:00.934Z,1003.03
2017-12-31T03:27:22.794Z,1002.98
2017-12-31T03:28:44.917Z,1002.96
2017-12-31T03:30:06.388Z,1002.9
2017-12-31T03:31:28.651Z,1002.95
2017-12-31T03:32:50.350Z,1002.94
2017-12-31T03:34:12.880Z,1002.9
2017-12-31T03:35:34.217Z,1002.86
2017-12-31T03:36:55.817Z,1002.84
2017-12-31T03:38:17.416Z,1002.86
2017-12-31T03:39:39.544Z,1002.78
2017-12-31T03:41:00.866Z,1002.82
2017-12-31T03:42:22.205Z,1002.8
2017-12-31T03:43:43.859Z,1002.77
2017-12-31T03:45:05.456Z,1002.75
2017-12-31T03:46:27.315Z,1002.69
2017-12-31T03:47:49.158Z,1002.62
2017-12-31T03:49:10.767Z,1002.66
2017-12-31T03:50:32.357Z,1002.62
2017-12-31T03:51:54.208Z,1002.58
2017-12-31T03:53:16.068Z,1002.57
2017-12-31T03:54:37.661Z,1002.58
2017-12-31T03:55:59.790Z,1002.51
2017-12-31T03:57:21.387Z,1002.56
2017-12-31T03:58:42.721Z,1002.55
2017-12-31T04:00:06.198Z,1002.51
2017-12-31T04:01:28.057Z,1002.58
2017-12-31T04:02:49.776Z,1002.58
2017-12-31T04:04:11.628Z,1002.66
2017-12-31T04:05:33.896Z,1002.65
2017-12-31T04:06:55.816Z,1002.62
2017-12-31T04:08:17.164Z,1002.61
2017-12-31T04:09:39.304Z,1002.62
2017-12-31T04:11:00.627Z,1002.69
2017-12-31T04:12:22.236Z,1002.71
2017-12-31T04:13:44.155Z,1002.71
2017-12-31T04:15:05.997Z,1002.63
2017-12-31T04:16:27.874Z,1002.57
2017-12-31T04:17:49.199Z,1002.55
2017-12-31T04:19:10.820Z,1002.49
2017-12-31T04:20:32.172Z,1002.38
2017-12-31T04:21:54.323Z,1002.36
2017-12-31T04:23:16.065Z,1002.38
2017-12-31T04:24:37.653Z,1002.38
2017-12-31T04:25:59.264Z,1002.33
2017-12-31T04:27:20.912Z,1002.41
2017-12-31T04:28:42.509Z,1002.42
2017-12-31T04:30:04.135Z,1002.47
2017-12-31T04:31:26.258Z,1002.43
2017-12-31T04:32:48.249Z,1002.38
2017-12-31T04:34:10.105Z,1002.35
2017-12-31T04:35:31.784Z,1002.34
2017-12-31T04:36:53.374Z,1002.27
2017-12-31T04:38:15.045Z,1002.2
2017-12-31T04:39:36.891Z,1002.2
2017-12-31T04:40:58.817Z,1002.24
2017-12-31T04:42:20.686Z,1002.27
2017-12-31T04:43:42.891Z,1002.33
2017-12-31T04:45:04.494Z,1002.28
2017-12-31T04:46:26.334Z,1002.3
2017-12-31T04:47:47.678Z,1002.26
2017-12-31T04:49:09.106Z,1002.26
2017-12-31T04:50:30.589Z,1002.24
2017-12-31T04:51:52.711Z,1002.21
2017-12-31T04:53:14.869Z,1002.25
2017-12-31T04:54:36.502Z,1002.3
2017-12-31T04:55:58.355Z,1002.38
2017-12-31T04:57:20.507Z,1002.38
2017-12-31T04:58:42.388Z,1002.4
2017-12-31T05:00:04.276Z,1002.38
2017-12-31T05:01:26.137Z,1002.37
2017-12-31T05:02:47.989Z,1002.35
2017-12-31T05:04:10.106Z,1002.32
2017-12-31T05:05:31.992Z,1002.32
2017-12-31T05:06:53.567Z,1002.28
2017-12-31T05:08:14.998Z,1002.28
2017-12-31T05:09:36.327Z,1002.31
2017-12-31T05:10:57.664Z,1002.28
2017-12-31T05:12:19.346Z,1002.26
2017-12-31T05:13:41.203Z,1002.21
2017-12-31T05:15:03.095Z,1002.16
2017-12-31T05:16:24.948Z,1002.16
2017-12-31T05:17:46.276Z,1002.13
2017-12-31T05:19:07.695Z,1002.07
2017-12-31T05:20:29.155Z,1002.13
2017-12-31T05:21:51.213Z,1002.06
2017-12-31T05:23:12.555Z,1002.02
2017-12-31T05:24:34.249Z,1002
2017-12-31T05:25:55.579Z,1001.94
2017-12-31T05:27:17.449Z,1001.91
2017-12-31T05:28:39.154Z,1001.93
2017-12-31T05:30:00.745Z,1001.94
2017-12-31T05:31:22.619Z,1001.96
2017-12-31T05:32:43.714Z,1001.93
2017-12-31T05:34:05.572Z,1001.89
2017-12-31T05:35:27.198Z,1001.89
2017-12-31T05:36:48.546Z,1001.88
2017-12-31T05:38:09.900Z,1001.84
2017-12-31T05:39:31.815Z,1001.78
2017-12-31T05:40:53.415Z,1001.8
2017-12-31T05:42:15.549Z,1001.78
2017-12-31T05:43:37.460Z,1001.79
2017-12-31T05:44:59.126Z,1001.76
2017-12-31T05:46:20.736Z,1001.78
2017-12-31T05:47:42.337Z,1001.76
2017-12-31T05:49:03.927Z,1001.71
2017-12-31T05:50:25.526Z,1001.72
2017-12-31T05:51:46.871Z,1001.69
2017-12-31T05:53:08.504Z,1001.71
2017-12-31T05:54:30.161Z,1001.74
2017-12-31T05:55:51.635Z,1001.71
2017-12-31T05:57:13.755Z,1001.67
2017-12-31T05:58:35.094Z,1001.6
2017-12-31T05:59:56.715Z,1001.58
2017-12-31T06:01:18.842Z,1001.58
2017-12-31T06:02:40.435Z,1001.62
2017-12-31T06:04:02.118Z,1001.59
2017-12-31T06:05:23.728Z,1001.59
2017-12-31T06:06:45.486Z,1001.55
2017-12-31T06:08:07.076Z,1001.54
2017-12-31T06:09:28.946Z,1001.52
2017-12-31T06:10:50.540Z,1001.56
2017-12-31T06:12:12.243Z,1001.46
2017-12-31T06:13:33.854Z,1001.49
2017-12-31T06:14:55.715Z,1001.47
2017-12-31T06:16:17.302Z,1001.41
2017-12-31T06:17:38.656Z,1001.43
2017-12-31T06:19:00.823Z,1001.36
2017-12-31T06:20:22.722Z,1001.32
2017-12-31T06:21:44.306Z,1001.34
2017-12-31T06:23:06.168Z,1001.33
2017-12-31T06:24:27.755Z,1001.39
2017-12-31T06:25:49.639Z,1001.45
2017-12-31T06:27:11.743Z,1001.45
2017-12-31T06:28:33.341Z,1001.45
2017-12-31T06:29:55.484Z,1001.46
2017-12-31T06:31:16.655Z,1001.43
2017-12-31T06:32:38.899Z,1001.4
2017-12-31T06:34:00.531Z,1001.46
2017-12-31T06:35:21.874Z,1001.35
2017-12-31T06:36:43.734Z,1001.35
2017-12-31T06:38:05.712Z,1001.32
2017-12-31T06:39:27.080Z,1001.32
2017-12-31T06:40:49.055Z,1001.33
2017-12-31T06:42:11.246Z,1001.32
2017-12-31T06:43:33.134Z,1001.28
2017-12-31T06:44:55.068Z,1001.27
2017-12-31T06:46:16.503Z,1001.2
2017-12-31T06:47:37.918Z,1001.19
2017-12-31T06:48:59.766Z,1001.14
2017-12-31T06:50:21.463Z,1001.11
2017-12-31T06:51:43.328Z,1001.09
2017-12-31T06:53:05.213Z,1001.06
2017-12-31T06:54:27.120Z,1001.06
2017-12-31T06:55:48.964Z,1001.02
2017-12-31T06:57:11.088Z,1001.04
2017-12-31T06:58:33.062Z,1001
2017-12-31T06:59:55.218Z,1001.02
2017-12-31T07:01:17.319Z,1001.05
2017-12-31T07:02:39.530Z,1001.06
2017-12-31T07:04:01.653Z,1000.99
2017-12-31T07:05:23.524Z,1000.98
2017-12-31T07:06:45.383Z,1000.97
2017-12-31T07:08:06.973Z,1000.98
2017-12-31T07:09:28.883Z,1000.97
2017-12-31T07:10:50.544Z,1000.96
2017-12-31T07:12:12.724Z,1000.98
2017-12-31T07:13:34.385Z,1000.96
2017-12-31T07:14:56.096Z,1000.98
2017-12-31T07:16:17.973Z,1000.93
2017-12-31T07:17:40.193Z,1000.94
2017-12-31T07:19:01.535Z,1000.9
2017-12-31T07:20:23.247Z,1000.93
2017-12-31T07:21:45.010Z,1000.91
2017-12-31T07:23:06.646Z,1000.91
2017-12-31T07:24:28.772Z,1000.85
2017-12-31T07:25:50.488Z,1000.84
2017-12-31T07:27:12.183Z,1000.82
2017-12-31T07:28:34.127Z,1000.83
2017-12-31T07:29:56.261Z,1000.79
2017-12-31T07:31:18.118Z,1000.74
2017-12-31T07:32:39.980Z,1000.76
2017-12-31T07:34:01.833Z,1000.73
2017-12-31T07:35:23.205Z,1000.69
2017-12-31T07:36:45.111Z,1000.71
2017-12-31T07:38:07.290Z,1000.66
2017-12-31T07:39:29.396Z,1000.64
2017-12-31T07:40:50.992Z,1000.65
2017-12-31T07:42:13.173Z,1000.63
2017-12-31T07:43:34.514Z,1000.62
2017-12-31T07:44:56.479Z,1000.59
2017-12-31T07:46:18.606Z,1000.54
2017-12-31T07:47:40.209Z,1000.53
2017-12-31T07:49:01.818Z,1000.49
2017-12-31T07:50:22.984Z,1000.57
2017-12-31T07:51:44.859Z,1000.5
2017-12-31T07:53:06.724Z,1000.5
2017-12-31T07:54:28.886Z,1000.43
2017-12-31T07:55:51.053Z,1000.37
2017-12-31T07:57:12.632Z,1000.38
2017-12-31T07:58:33.986Z,1000.38
2017-12-31T07:59:55.733Z,1000.31
2017-12-31T08:01:17.334Z,1000.27
2017-12-31T08:02:39.223Z,1000.27
2017-12-31T08:04:01.154Z,1000.26
2017-12-31T08:05:23.408Z,1000.28
2017-12-31T08:06:45.274Z,1000.26
2017-12-31T08:08:06.664Z,1000.3
2017-12-31T08:09:28.589Z,1000.3
2017-12-31T08:10:50.190Z,1000.28
2017-12-31T08:12:11.257Z,1000.26
2017-12-31T08:13:33.160Z,1000.24
2017-12-31T08:14:55.336Z,1000.3
2017-12-31T08:16:17.026Z,1000.3
2017-12-31T08:17:38.891Z,1000.25
2017-12-31T08:19:00.651Z,1000.25
2017-12-31T08:20:21.988Z,1000.27
2017-12-31T08:21:43.303Z,1000.19
2017-12-31T08:23:05.533Z,1000.22
2017-12-31T08:24:27.654Z,1000.26
2017-12-31T08:25:49.782Z,1000.28
2017-12-31T08:27:11.623Z,1000.22
2017-12-31T08:28:33.857Z,1000.23
2017-12-31T08:29:55.793Z,1000.23
2017-12-31T08:31:17.393Z,1000.19
2017-12-31T08:32:39.610Z,1000.15
2017-12-31T08:34:01.479Z,1000.18
2017-12-31T08:35:22.571Z,1000.2
2017-12-31T08:36:44.167Z,1000.13
2017-12-31T08:38:05.574Z,1000.15
2017-12-31T08:39:27.012Z,1000.07
2017-12-31T08:40:49.183Z,1000.08
2017-12-31T08:42:11.402Z,1000.09
2017-12-31T08:43:33.666Z,1000.1
2017-12-31T08:44:55.857Z,1000.1
2017-12-31T08:46:18.001Z,1000.06
2017-12-31T08:47:39.596Z,1000.05
2017-12-31T08:49:01.760Z,1000.04
2017-12-31T08:50:23.368Z,1000.02
2017-12-31T08:51:45.083Z,999.96
2017-12-31T08:53:07.340Z,999.97
2017-12-31T08:54:28.965Z,999.95
2017-12-31T08:55:50.561Z,999.92
2017-12-31T08:57:11.742Z,999.9
2017-12-31T08:58:33.675Z,999.87
2017-12-31T08:59:55.330Z,999.86
2017-12-31T09:01:17.623Z,999.84
2017-12-31T09:02:39.492Z,999.83
2017-12-31T09:04:01.349Z,999.8
2017-12-31T09:05:23.222Z,999.79
2017-12-31T09:06:45.424Z,999.85
2017-12-31T09:08:07.563Z,999.79
2017-12-31T09:09:29.266Z,999.79
2017-12-31T09:10:50.887Z,999.84
2017-12-31T09:12:13.222Z,999.82
2017-12-31T09:13:34.979Z,999.84
2017-12-31T09:14:56.573Z,999.8
2017-12-31T09:16:18.178Z,999.79
2017-12-31T09:17:40.045Z,999.78
2017-12-31T09:19:01.985Z,999.79
2017-12-31T09:20:24.117Z,999.84
2017-12-31T09:21:45.982Z,999.77
2017-12-31T09:23:07.995Z,999.78
2017-12-31T09:24:29.888Z,999.73
2017-12-31T09:25:51.923Z,999.7
2017-12-31T09:27:13.546Z,999.68
2017-12-31T09:28:35.383Z,999.65
2017-12-31T09:29:57.251Z,999.69
2017-12-31T09:31:19.249Z,999.65
2017-12-31T09:32:40.720Z,999.62
2017-12-31T09:34:02.009Z,999.54
2017-12-31T09:35:23.910Z,999.64
2017-12-31T09:36:45.756Z,999.59
2017-12-31T09:38:07.622Z,999.63
2017-12-31T09:39:29.242Z,999.58
2017-12-31T09:40:51.228Z,999.52
2017-12-31T09:42:13.349Z,999.54
2017-12-31T09:43:35.516Z,999.55
2017-12-31T09:44:57.686Z,999.53
2017-12-31T09:46:19.833Z,999.5
2017-12-31T09:47:41.793Z,999.52
2017-12-31T09:49:03.828Z,999.47
2017-12-31T09:50:26.004Z,999.46
2017-12-31T09:51:48.149Z,999.39
2017-12-31T09:53:10.101Z,999.39
2017-12-31T09:54:32.058Z,999.32
2017-12-31T09:55:53.937Z,999.39
2017-12-31T09:57:16.063Z,999.32
2017-12-31T09:58:38.234Z,999.29
2017-12-31T10:00:00.121Z,999.27
2017-12-31T10:01:21.810Z,999.33
2017-12-31T10:02:43.986Z,999.27
2017-12-31T10:04:06.119Z,999.18
2017-12-31T10:05:28.270Z,999.12
2017-12-31T10:06:50.166Z,999.12
2017-12-31T10:08:12.022Z,999.1
2017-12-31T10:09:33.924Z,999.17
2017-12-31T10:10:55.606Z,999.1
2017-12-31T10:12:17.712Z,999.16
2017-12-31T10:13:39.421Z,999.13
2017-12-31T10:15:01.081Z,999.07
2017-12-31T10:16:23.320Z,999.08
2017-12-31T10:17:45.457Z,999.15
2017-12-31T10:19:06.588Z,999.12
2017-12-31T10:20:28.828Z,999.15
2017-12-31T10:21:50.696Z,999.13
2017-12-31T10:23:12.845Z,999.18
2017-12-31T10:24:34.195Z,999.1
2017-12-31T10:25:56.329Z,999.1
2017-12-31T10:27:17.958Z,999.12
2017-12-31T10:28:39.921Z,999.16
2017-12-31T10:30:01.627Z,999.13
2017-12-31T10:31:23.493Z,999.16
2017-12-31T10:32:45.497Z,999.17
2017-12-31T10:34:07.135Z,999.2
2017-12-31T10:35:29.016Z,999.23
2017-12-31T10:36:51.146Z,999.17
2017-12-31T10:38:12.838Z,999.16
2017-12-31T10:39:35.212Z,999.16
2017-12-31T10:40:56.980Z,999.22
2017-12-31T10:42:18.601Z,999.13
2017-12-31T10:43:40.723Z,999.17
2017-12-31T10:45:02.867Z,999.18
2017-12-31T10:46:24.751Z,999.26
2017-12-31T10:47:46.675Z,999.23
2017-12-31T10:49:08.811Z,999.2
2017-12-31T10:50:30.422Z,999.26
2017-12-31T10:51:52.300Z,999.24
2017-12-31T10:53:14.152Z,999.27
2017-12-31T10:54:36.032Z,999.22
2017-12-31T10:55:57.999Z,999.33
2017-12-31T10:57:19.625Z,999.23
2017-12-31T10:58:41.352Z,999.24
2017-12-31T11:00:03.493Z,999.22
2017-12-31T11:01:25.411Z,999.29
2017-12-31T11:02:47.301Z,999.28
2017-12-31T11:04:08.415Z,999.18
2017-12-31T11:05:29.995Z,999.24
2017-12-31T11:06:51.630Z,999.2
2017-12-31T11:08:13.515Z,999.25
2017-12-31T11:09:35.509Z,999.24
2017-12-31T11:10:57.128Z,999.19
2017-12-31T11:12:18.726Z,999.13
2017-12-31T11:13:40.610Z,999.18
2017-12-31T11:15:02.223Z,999.2
2017-12-31T11:16:24.381Z,999.15
2017-12-31T11:17:46.281Z,999.16
2017-12-31T11:19:07.995Z,999.1
2017-12-31T11:20:30.010Z,999.14
2017-12-31T11:21:52.174Z,998.99
2017-12-31T11:23:14.213Z,999.06
2017-12-31T11:24:36.106Z,999.07
2017-12-31T11:25:57.745Z,999.06
2017-12-31T11:27:18.923Z,998.99
2017-12-31T11:28:40.534Z,999
2017-12-31T11:30:02.398Z,999
2017-12-31T11:31:24.324Z,998.99
2017-12-31T11:32:46.238Z,998.98
2017-12-31T11:34:08.153Z,999.07
2017-12-31T11:35:30.053Z,999.07
2017-12-31T11:36:52.202Z,999.02
2017-12-31T11:38:13.967Z,998.98
2017-12-31T11:39:36.113Z,999.09
2017-12-31T11:40:57.994Z,999.15
2017-12-31T11:42:19.862Z,999.12
2017-12-31T11:43:41.743Z,999.11
2017-12-31T11:45:03.715Z,998.96
2017-12-31T11:46:26.048Z,999
2017-12-31T11:47:47.814Z,998.97
2017-12-31T11:49:09.722Z,998.95
2017-12-31T11:50:31.612Z,999.01
2017-12-31T11:51:53.528Z,999
2017-12-31T11:53:15.515Z,998.91
2017-12-31T11:54:37.151Z,998.96
2017-12-31T11:55:59.044Z,998.98
2017-12-31T11:57:21.319Z,998.9
2017-12-31T11:58:42.802Z,998.96
2017-12-31T12:00:04.717Z,998.94
2017-12-31T12:01:26.902Z,998.9
2017-12-31T12:02:48.903Z,998.86
2017-12-31T12:04:10.355Z,998.9
2017-12-31T12:05:32.501Z,998.87
2017-12-31T12:06:54.134Z,998.92
2017-12-31T12:08:16.368Z,998.9
2017-12-31T12:09:38.370Z,998.85
2017-12-31T12:11:00.557Z,998.85
2017-12-31T12:12:22.706Z,998.8
2017-12-31T12:13:44.860Z,998.79
2017-12-31T12:15:06.752Z,998.73
2017-12-31T12:16:28.968Z,998.73
2017-12-31T12:17:50.931Z,998.7
2017-12-31T12:19:12.541Z,998.62
2017-12-31T12:20:34.493Z,998.64
2017-12-31T12:21:56.647Z,998.56
2017-12-31T12:23:18.518Z,998.55
2017-12-31T12:24:40.684Z,998.54
2017-12-31T12:26:02.640Z,998.52
2017-12-31T12:27:24.798Z,998.47
2017-12-31T12:28:46.731Z,998.49
2017-12-31T12:30:08.921Z,998.5
2017-12-31T12:31:30.554Z,998.48
2017-12-31T12:32:52.415Z,998.42
2017-12-31T12:34:14.596Z,998.43
2017-12-31T12:35:36.743Z,998.44
2017-12-31T12:36:58.894Z,998.34
2017-12-31T12:38:20.928Z,998.35
2017-12-31T12:39:42.879Z,998.38
2017-12-31T12:41:05.027Z,998.29
2017-12-31T12:42:27.175Z,998.3
2017-12-31T12:43:49.084Z,998.26
2017-12-31T12:45:11.349Z,998.27
2017-12-31T12:46:33.736Z,998.26
2017-12-31T12:47:55.361Z,998.21
2017-12-31T12:49:17.543Z,998.18
2017-12-31T12:50:39.546Z,998.16
2017-12-31T12:52:01.683Z,998.17
2017-12-31T12:53:23.608Z,998.16
2017-12-31T12:54:45.234Z,998.11
2017-12-31T12:56:07.177Z,998.11
2017-12-31T12:57:29.385Z,998.17
2017-12-31T12:58:51.659Z,998.05
2017-12-31T13:00:13.564Z,998.12
2017-12-31T13:01:35.447Z,998.01
2017-12-31T13:02:57.662Z,998.01
2017-12-31T13:04:19.353Z,998.03
2017-12-31T13:05:41.123Z,998.03
2017-12-31T13:07:03.043Z,998.02
2017-12-31T13:08:25.369Z,998.03
2017-12-31T13:09:46.834Z,997.98
2017-12-31T13:11:09.010Z,998.03
2017-12-31T13:12:30.891Z,997.96
2017-12-31T13:13:52.764Z,997.92
2017-12-31T13:15:14.647Z,997.91
2017-12-31T13:16:36.550Z,997.95
2017-12-31T13:17:58.438Z,997.93
2017-12-31T13:19:20.046Z,997.92
2017-12-31T13:20:42.040Z,997.94
2017-12-31T13:22:04.083Z,997.93
2017-12-31T13:23:26.239Z,997.87
2017-12-31T13:24:47.591Z,997.93
2017-12-31T13:26:09.511Z,997.83
2017-12-31T13:27:31.665Z,997.88
2017-12-31T13:28:53.566Z,997.82
2017-12-31T13:30:15.560Z,997.82
2017-12-31T13:31:37.437Z,997.79
2017-12-31T13:32:59.581Z,997.8
2017-12-31T13:34:21.506Z,997.75
2017-12-31T13:35:43.437Z,997.79
2017-12-31T13:37:05.363Z,997.8
2017-12-31T13:38:27.160Z,997.78
2017-12-31T13:39:49.165Z,997.74
2017-12-31T13:41:11.164Z,997.77
2017-12-31T13:42:33.142Z,997.72
2017-12-31T13:43:55.277Z,997.75
2017-12-31T13:45:17.469Z,997.66
2017-12-31T13:46:39.473Z,997.66
2017-12-31T13:48:01.383Z,997.65
2017-12-31T13:49:23.382Z,997.61
2017-12-31T13:50:45.537Z,997.68
2017-12-31T13:52:07.159Z,997.68
2017-12-31T13:53:29.449Z,997.7
2017-12-31T13:54:51.098Z,997.7
2017-12-31T13:56:13.304Z,997.75
2017-12-31T13:57:35.259Z,997.75
2017-12-31T13:58:57.239Z,997.75
2017-12-31T14:00:19.594Z,997.76
2017-12-31T14:01:41.480Z,997.74
2017-12-31T14:03:03.414Z,997.7
2017-12-31T14:04:25.674Z,997.76
2017-12-31T14:05:47.494Z,997.77
2017-12-31T14:07:09.133Z,997.75
2017-12-31T14:08:31.367Z,997.72
2017-12-31T14:09:53.325Z,997.65
2017-12-31T14:11:14.953Z,997.68
2017-12-31T14:12:36.828Z,997.66
2017-12-31T14:13:58.708Z,997.66
2017-12-31T14:15:20.360Z,997.69
2017-12-31T14:16:41.984Z,997.66
2017-12-31T14:18:03.909Z,997.67
2017-12-31T14:19:25.783Z,997.69
2017-12-31T14:20:47.653Z,997.62
2017-12-31T14:22:09.553Z,997.57
2017-12-31T14:23:31.707Z,997.49
2017-12-31T14:24:53.312Z,997.51
2017-12-31T14:26:14.948Z,997.52
2017-12-31T14:27:36.604Z,997.48
2017-12-31T14:28:58.504Z,997.45
2017-12-31T14:30:20.476Z,997.39
2017-12-31T14:31:41.854Z,997.36
2017-12-31T14:33:04.047Z,997.32
2017-12-31T14:34:25.972Z,997.27
2017-12-31T14:35:47.619Z,997.29
2017-12-31T14:37:09.787Z,997.29
2017-12-31T14:38:31.941Z,997.31
2017-12-31T14:39:54.114Z,997.26
2017-12-31T14:41:16.278Z,997.16
2017-12-31T14:42:37.987Z,997.2
2017-12-31T14:44:00.025Z,997.22
2017-12-31T14:45:22.083Z,997.2
2017-12-31T14:46:44.261Z,997.28
2017-12-31T14:48:06.406Z,997.24
2017-12-31T14:49:28.024Z,997.23
2017-12-31T14:50:50.204Z,997.22
2017-12-31T14:52:12.661Z,997.19
2017-12-31T14:53:34.732Z,997.17
2017-12-31T14:54:56.359Z,997.15
2017-12-31T14:56:18.263Z,997.19
2017-12-31T14:57:40.661Z,997.16
2017-12-31T14:59:02.587Z,997.08
2017-12-31T15:00:24.536Z,997.11
2017-12-31T15:01:46.538Z,997.08
2017-12-31T15:03:08.208Z,997.02
2017-12-31T15:04:30.390Z,996.98
2017-12-31T15:05:52.653Z,996.99
2017-12-31T15:07:14.547Z,996.98
2017-12-31T15:08:36.035Z,996.97
2017-12-31T15:09:58.179Z,996.85
2017-12-31T15:11:20.167Z,996.92
2017-12-31T15:12:42.095Z,996.88
2017-12-31T15:14:04.076Z,996.83
2017-12-31T15:15:26.201Z,996.9
2017-12-31T15:16:47.938Z,996.87
2017-12-31T15:18:09.797Z,996.87
2017-12-31T15:19:31.435Z,996.84
2017-12-31T15:20:53.354Z,996.81
2017-12-31T15:22:15.314Z,996.76
2017-12-31T15:23:37.188Z,996.76
2017-12-31T15:24:59.389Z,996.88
2017-12-31T15:26:21.354Z,997.01
2017-12-31T15:27:43.543Z,997.11
2017-12-31T15:29:05.716Z,997.16
2017-12-31T15:30:27.064Z,997.21
2017-12-31T15:31:49.203Z,997.2
2017-12-31T15:33:11.068Z,997.19
2017-12-31T15:34:32.960Z,997.19
2017-12-31T15:35:54.833Z,997.33
2017-12-31T15:37:16.738Z,997.15
2017-12-31T15:38:38.410Z,997.23
2017-12-31T15:40:00.029Z,997.28
2017-12-31T15:41:21.929Z,997.35
2017-12-31T15:42:44.165Z,997.33
2017-12-31T15:44:05.862Z,997.25
2017-12-31T15:45:27.464Z,997.27
2017-12-31T15:46:49.377Z,997.18
2017-12-31T15:48:11.287Z,997.28
2017-12-31T15:49:33.168Z,997.21
2017-12-31T15:50:55.365Z,997.27
2017-12-31T15:52:17.274Z,997.3
2017-12-31T15:53:39.507Z,997.19
2017-12-31T15:55:01.620Z,997.17
2017-12-31T15:56:23.553Z,997.17
2017-12-31T15:57:45.746Z,997.23
2017-12-31T15:59:07.953Z,997.2
2017-12-31T16:00:29.846Z,997.27
2017-12-31T16:01:52.039Z,997.25
2017-12-31T16:03:14.268Z,997.25
2017-12-31T16:04:36.147Z,997.25
2017-12-31T16:05:58.335Z,997.23
2017-12-31T16:07:20.495Z,997.31
2017-12-31T16:08:42.384Z,997.26
2017-12-31T16:10:04.753Z,997.18
2017-12-31T16:11:26.971Z,997.18
2017-12-31T16:12:48.855Z,997.16
2017-12-31T16:14:10.508Z,997.1
2017-12-31T16:15:32.693Z,997.1
2017-12-31T16:16:54.817Z,997.14
2017-12-31T16:18:16.795Z,997.15
2017-12-31T16:19:38.718Z,996.99
2017-12-31T16:21:00.870Z,997.07
2017-12-31T16:22:22.490Z,997.15
2017-12-31T16:23:44.806Z,997.2
2017-12-31T16:25:06.677Z,997.25
2017-12-31T16:26:28.315Z,997.2
2017-12-31T16:27:50.263Z,997.21
2017-12-31T16:29:12.189Z,997.16
2017-12-31T16:30:34.472Z,997.16
2017-12-31T16:31:56.564Z,997.18
2017-12-31T16:33:18.600Z,997.08
2017-12-31T16:34:40.838Z,997.11
2017-12-31T16:36:02.763Z,997.1
2017-12-31T16:37:24.978Z,997.03
2017-12-31T16:38:47.136Z,997.09
2017-12-31T16:40:09.014Z,997.02
2017-12-31T16:41:30.721Z,997.07
2017-12-31T16:42:52.863Z,997.05
2017-12-31T16:44:14.773Z,997.01
2017-12-31T16:45:36.704Z,997
2017-12-31T16:46:58.607Z,997.03
2017-12-31T16:48:20.234Z,997.02